Harlan Richardson — WDD9350 — position and weather

sailwx.info

Track history (hours):
 
Tides and Currents Weather Stations Pressure Air Temp Water Temp Dewpoint Dewpoint Depression Visibility Wind Speed Wind Dir Waves Ship Positions

Harlan Richardson

Owner: RICHARDSON MARINE LP, HOUSTON, TX. More information available from US FCC via Universal Licensing System and Coast Guard Vessel Documentation Center.

Last reported at 2018-Jun-23 11:27 UTC. Time now 2018-Jun-23 11:55 UTC.
Position N 29°45' W 095°07'.

Length 15 m; draft 9 m.

Type: Towing. MMSI: 367310170.

Date/timePositionNaut miles runAvg speedWind from/ knotsBaromVisibWave heightAir tempDewpointWater temp
2018-Jun-23 11:27N 29°45' W 095°07'0 0.0
2018-Jun-23 10:55N 29°45' W 095°07'0 0.0
2018-Jun-23 10:14N 29°45' W 095°07'0 0.0
2018-Jun-23 10:00N 29°45' W 095°07'0 0.0
2018-Jun-23 09:21N 29°45' W 095°07'0 0.0
2018-Jun-23 08:57N 29°45' W 095°07'0 0.0
2018-Jun-23 08:26N 29°45' W 095°07'1 1.9
2018-Jun-23 07:59N 29°45' W 095°06'2 4.5
2018-Jun-23 07:27N 29°44' W 095°03'3 5.9
2018-Jun-23 07:00N 29°42' W 095°01'3 5.9
2018-Jun-23 06:30N 29°41' W 094°58'2 4.4
2018-Jun-23 05:59N 29°41' W 094°55'1 2.2
2018-Jun-23 05:30N 29°42' W 094°56'1 1.2
2018-Jun-23 04:58N 29°43' W 094°56'0 0.0
2018-Jun-23 04:30N 29°43' W 094°56'0 0.0
2018-Jun-23 04:00N 29°43' W 094°56'1 1.6
2018-Jun-23 03:30N 29°42' W 094°56'0 0.7
2018-Jun-23 03:00N 29°42' W 094°56'1 2.5
2018-Jun-23 02:30N 29°43' W 094°56'2 0.4
2018-Jun-22 21:50N 29°41' W 094°55'1 3.4
2018-Jun-22 21:27N 29°41' W 094°56'2 4.8
2018-Jun-22 21:00N 29°41' W 094°59'8 1.1
2018-Jun-22 13:58N 29°46' W 095°06'2 4.6
2018-Jun-22 13:30N 29°44' W 095°08'4 6.8
2018-Jun-22 12:51N 29°43' W 095°13'3 7.2
2018-Jun-22 12:30N 29°44' W 095°16'1 0.2
2018-Jun-22 07:46N 29°44' W 095°17'0 0.1
2018-Jun-22 07:29N 29°44' W 095°17'4 4.6
2018-Jun-22 06:39N 29°44' W 095°12'1 6.6
2018-Jun-22 06:27N 29°45' W 095°11'3 6.7
2018-Jun-22 06:00N 29°44' W 095°08'3 6.3
2018-Jun-22 05:30N 29°46' W 095°04'3 6.1
2018-Jun-22 05:00N 29°44' W 095°02'3 5.7
2018-Jun-22 04:30N 29°42' W 094°59'3 5.1
2018-Jun-22 04:00N 29°41' W 094°57'2 3.8
2018-Jun-22 03:30N 29°42' W 094°55'0 0.1
2018-Jun-22 02:59N 29°42' W 094°55'1 1.1
2018-Jun-22 02:30N 29°41' W 094°55'1 2.7
2018-Jun-22 01:59N 29°41' W 094°57'2 4.2
2018-Jun-22 01:30N 29°41' W 094°59'3 5.3
2018-Jun-22 01:00N 29°43' W 095°01'3 5.8
2018-Jun-22 00:27N 29°45' W 095°04'3 4.9
2018-Jun-21 23:47N 29°44' W 095°08'1 0.1
2018-Jun-21 06:13N 29°44' W 095°09'1 4.1
2018-Jun-21 05:52N 29°44' W 095°07'2 4.9
2018-Jun-21 05:30N 29°45' W 095°06'3 4.2
2018-Jun-21 04:49N 29°44' W 095°03'2 4.6
2018-Jun-21 04:21N 29°42' W 095°01'2 5.3
2018-Jun-21 04:00N 29°42' W 094°59'2 4.4
2018-Jun-21 03:30N 29°41' W 094°57'1 2.9
2018-Jun-21 03:00N 29°41' W 094°55'0 0.8
2018-Jun-21 02:26N 29°42' W 094°55'2 0.5
2018-Jun-20 22:59N 29°43' W 094°57'1 1.0
2018-Jun-20 22:22N 29°43' W 094°56'1 1.6
2018-Jun-20 21:58N 29°43' W 094°57'0 0.1
2018-Jun-20 21:17N 29°43' W 094°57'1 2.0
2018-Jun-20 20:59N 29°43' W 094°56'1 1.0
2018-Jun-20 19:41N 29°42' W 094°55'1 4.6
2018-Jun-20 19:29N 29°41' W 094°56'2 4.2
2018-Jun-20 18:54N 29°41' W 094°58'1 3.3
2018-Jun-20 18:30N 29°41' W 094°60'3 4.7
2018-Jun-20 17:58N 29°39' W 094°58'2 4.4
2018-Jun-20 17:29N 29°37' W 094°58'1 2.5
2018-Jun-20 17:00N 29°37' W 094°60'0 0.0
2018-Jun-20 16:30N 29°37' W 094°60'0 0.0
2018-Jun-20 16:00N 29°37' W 094°60'0 0.0
2018-Jun-20 15:30N 29°37' W 094°60'0 0.0
2018-Jun-20 15:00N 29°37' W 094°60'0 0.0
2018-Jun-20 14:30N 29°37' W 094°60'0 0.0
2018-Jun-20 14:00N 29°37' W 094°60'0 0.0
2018-Jun-20 13:30N 29°37' W 094°60'0 0.0
2018-Jun-20 13:00N 29°37' W 094°60'0 0.0
2018-Jun-20 12:30N 29°37' W 094°60'0 0.0
2018-Jun-20 12:00N 29°37' W 094°60'0 0.0
2018-Jun-20 11:30N 29°37' W 094°60'0 0.0
2018-Jun-20 11:00N 29°37' W 094°60'0 0.0
2018-Jun-20 10:30N 29°37' W 094°60'0 0.0
2018-Jun-20 10:00N 29°37' W 094°60'0 0.0
2018-Jun-20 09:30N 29°37' W 094°60'0 0.0
2018-Jun-20 09:00N 29°37' W 094°60'0 0.0
2018-Jun-20 08:30N 29°37' W 094°60'0 0.0
2018-Jun-20 08:00N 29°37' W 094°60'0 0.0
2018-Jun-20 07:30N 29°37' W 094°60'0 0.0
2018-Jun-20 07:00N 29°37' W 094°60'0 0.1
2018-Jun-20 06:30N 29°37' W 094°60'0 0.0
2018-Jun-20 06:00N 29°37' W 094°60'0 0.0
2018-Jun-20 05:30N 29°37' W 094°60'0 0.1
2018-Jun-20 05:00N 29°37' W 094°60'0 0.0
2018-Jun-20 04:30N 29°37' W 094°60'2 3.2
2018-Jun-20 04:00N 29°37' W 094°58'3 5.8
2018-Jun-20 03:30N 29°40' W 094°58'2 3.7
2018-Jun-20 03:00N 29°41' W 094°57'2 3.5
2018-Jun-20 02:27N 29°42' W 094°55'1 1.5
2018-Jun-20 01:55N 29°42' W 094°56'1 0.3
2018-Jun-19 22:08N 29°43' W 094°57'2 0.3
2018-Jun-19 15:50N 29°42' W 094°55'1 1.8
2018-Jun-19 15:07N 29°43' W 094°56'0 0.0
2018-Jun-19 14:59N 29°43' W 094°56'0 0.0
2018-Jun-19 14:30N 29°43' W 094°56'0 0.0
2018-Jun-19 13:44N 29°43' W 094°56'0 0.1
2018-Jun-19 13:29N 29°43' W 094°56'0 0.0
2018-Jun-19 13:00N 29°43' W 094°56'0 0.0
2018-Jun-19 12:28N 29°43' W 094°56'0 0.0
2018-Jun-19 12:00N 29°43' W 094°56'0 0.0
2018-Jun-19 11:27N 29°43' W 094°56'0 0.0
2018-Jun-19 11:00N 29°43' W 094°56'0 0.0
2018-Jun-19 10:30N 29°43' W 094°56'0 0.0
2018-Jun-19 09:58N 29°43' W 094°56'0 0.0
2018-Jun-19 09:29N 29°43' W 094°56'0 0.0
2018-Jun-19 08:53N 29°43' W 094°56'0 0.0
2018-Jun-19 08:23N 29°43' W 094°56'0 0.0
2018-Jun-19 08:00N 29°43' W 094°56'0 0.0
2018-Jun-19 07:30N 29°43' W 094°56'0 0.0
2018-Jun-19 00:43N 29°43' W 094°56'1 0.7
2018-Jun-18 23:07N 29°42' W 094°55'1 0.5
2018-Jun-18 21:54N 29°42' W 094°56'1 0.0
2018-Jun-16 23:31N 29°42' W 094°55'0 3.3
2018-Jun-16 23:30N 29°42' W 094°55'3 3.2
2018-Jun-16 22:38N 29°41' W 094°58'0 1.1
2018-Jun-16 22:30N 29°41' W 094°59'2 3.6
2018-Jun-16 21:51N 29°42' W 095°01'4 0.2
2018-Jun-16 02:57N 29°45' W 095°04'3 4.6
2018-Jun-16 02:13N 29°42' W 095°01'1 5.2
2018-Jun-16 01:58N 29°42' W 094°60'2 4.0
2018-Jun-16 01:29N 29°41' W 094°58'2 2.9
2018-Jun-16 00:50N 29°41' W 094°55'1 1.9
2018-Jun-16 00:20N 29°42' W 094°55'2 0.1
2018-Jun-15 01:49N 29°43' W 094°56'2 2.4
2018-Jun-15 01:00N 29°42' W 094°55'0 0.0
2018-Jun-15 00:29N 29°42' W 094°55'0 0.7
2018-Jun-14 23:58N 29°42' W 094°55'3 2.0
2018-Jun-14 22:29N 29°41' W 094°59'0 0.7
2018-Jun-14 21:59N 29°41' W 094°59'0 0.7
2018-Jun-14 21:29N 29°41' W 094°59'1 1.9
2018-Jun-14 21:00N 29°41' W 094°58'2 0.3
2018-Jun-14 13:41N 29°43' W 094°57'1 0.1
2018-Jun-14 09:28N 29°43' W 094°56'0 0.0
2018-Jun-14 08:15N 29°43' W 094°56'0 0.0
2018-Jun-14 08:00N 29°43' W 094°56'0 0.0
2018-Jun-14 07:29N 29°43' W 094°56'1 1.8
2018-Jun-14 06:59N 29°42' W 094°56'1 0.2
2018-Jun-14 03:49N 29°42' W 094°55'0 0.0
2018-Jun-14 03:21N 29°42' W 094°55'0 0.1
2018-Jun-14 02:45N 29°42' W 094°55'1 2.1
2018-Jun-14 02:23N 29°42' W 094°56'0 1.0
2018-Jun-14 01:56N 29°42' W 094°56'1 0.2
2018-Jun-13 23:23N 29°43' W 094°56'0 0.0
2018-Jun-13 21:02N 29°43' W 094°56'0 0.2
2018-Jun-13 21:00N 29°43' W 094°56'  
Track history (hours):
 
Tides and Currents Weather Stations Pressure Air Temp Water Temp Dewpoint Dewpoint Depression Visibility Wind Speed Wind Dir Waves Ship Positions

Harlan Richardson

Owner: RICHARDSON MARINE LP, HOUSTON, TX. More information available from US FCC via Universal Licensing System and Coast Guard Vessel Documentation Center.

Last reported at 2018-Jun-23 11:27 UTC. Time now 2018-Jun-23 11:55 UTC.
Position N 29°45' W 095°07'.

Length 15 m; draft 9 m.

Type: Towing. MMSI: 367310170.

Date/timePositionNaut miles runAvg speedWind from/ knotsBaromVisibWave heightAir tempDewpointWater temp
2018-Jun-23 11:27N 29°45' W 095°07'0 0.0
2018-Jun-23 10:55N 29°45' W 095°07'0 0.0
2018-Jun-23 10:14N 29°45' W 095°07'0 0.0
2018-Jun-23 10:00N 29°45' W 095°07'0 0.0
2018-Jun-23 09:21N 29°45' W 095°07'0 0.0
2018-Jun-23 08:57N 29°45' W 095°07'0 0.0
2018-Jun-23 08:26N 29°45' W 095°07'1 1.9
2018-Jun-23 07:59N 29°45' W 095°06'2 4.5
2018-Jun-23 07:27N 29°44' W 095°03'3 5.9
2018-Jun-23 07:00N 29°42' W 095°01'3 5.9
2018-Jun-23 06:30N 29°41' W 094°58'2 4.4
2018-Jun-23 05:59N 29°41' W 094°55'1 2.2
2018-Jun-23 05:30N 29°42' W 094°56'1 1.2
2018-Jun-23 04:58N 29°43' W 094°56'0 0.0
2018-Jun-23 04:30N 29°43' W 094°56'0 0.0
2018-Jun-23 04:00N 29°43' W 094°56'1 1.6
2018-Jun-23 03:30N 29°42' W 094°56'0 0.7
2018-Jun-23 03:00N 29°42' W 094°56'1 2.5
2018-Jun-23 02:30N 29°43' W 094°56'2 0.4
2018-Jun-22 21:50N 29°41' W 094°55'1 3.4
2018-Jun-22 21:27N 29°41' W 094°56'2 4.8
2018-Jun-22 21:00N 29°41' W 094°59'8 1.1
2018-Jun-22 13:58N 29°46' W 095°06'2 4.6
2018-Jun-22 13:30N 29°44' W 095°08'4 6.8
2018-Jun-22 12:51N 29°43' W 095°13'3 7.2
2018-Jun-22 12:30N 29°44' W 095°16'1 0.2
2018-Jun-22 07:46N 29°44' W 095°17'0 0.1
2018-Jun-22 07:29N 29°44' W 095°17'4 4.6
2018-Jun-22 06:39N 29°44' W 095°12'1 6.6
2018-Jun-22 06:27N 29°45' W 095°11'3 6.7
2018-Jun-22 06:00N 29°44' W 095°08'3 6.3
2018-Jun-22 05:30N 29°46' W 095°04'3 6.1
2018-Jun-22 05:00N 29°44' W 095°02'3 5.7
2018-Jun-22 04:30N 29°42' W 094°59'3 5.1
2018-Jun-22 04:00N 29°41' W 094°57'2 3.8
2018-Jun-22 03:30N 29°42' W 094°55'0 0.1
2018-Jun-22 02:59N 29°42' W 094°55'1 1.1
2018-Jun-22 02:30N 29°41' W 094°55'1 2.7
2018-Jun-22 01:59N 29°41' W 094°57'2 4.2
2018-Jun-22 01:30N 29°41' W 094°59'3 5.3
2018-Jun-22 01:00N 29°43' W 095°01'3 5.8
2018-Jun-22 00:27N 29°45' W 095°04'3 4.9
2018-Jun-21 23:47N 29°44' W 095°08'1 0.1
2018-Jun-21 06:13N 29°44' W 095°09'1 4.1
2018-Jun-21 05:52N 29°44' W 095°07'2 4.9
2018-Jun-21 05:30N 29°45' W 095°06'3 4.2
2018-Jun-21 04:49N 29°44' W 095°03'2 4.6
2018-Jun-21 04:21N 29°42' W 095°01'2 5.3
2018-Jun-21 04:00N 29°42' W 094°59'2 4.4
2018-Jun-21 03:30N 29°41' W 094°57'1 2.9
2018-Jun-21 03:00N 29°41' W 094°55'0 0.8
2018-Jun-21 02:26N 29°42' W 094°55'2 0.5
2018-Jun-20 22:59N 29°43' W 094°57'1 1.0
2018-Jun-20 22:22N 29°43' W 094°56'1 1.6
2018-Jun-20 21:58N 29°43' W 094°57'0 0.1
2018-Jun-20 21:17N 29°43' W 094°57'1 2.0
2018-Jun-20 20:59N 29°43' W 094°56'1 1.0
2018-Jun-20 19:41N 29°42' W 094°55'1 4.6
2018-Jun-20 19:29N 29°41' W 094°56'2 4.2
2018-Jun-20 18:54N 29°41' W 094°58'1 3.3
2018-Jun-20 18:30N 29°41' W 094°60'3 4.7
2018-Jun-20 17:58N 29°39' W 094°58'2 4.4
2018-Jun-20 17:29N 29°37' W 094°58'1 2.5
2018-Jun-20 17:00N 29°37' W 094°60'0 0.0
2018-Jun-20 16:30N 29°37' W 094°60'0 0.0
2018-Jun-20 16:00N 29°37' W 094°60'0 0.0
2018-Jun-20 15:30N 29°37' W 094°60'0 0.0
2018-Jun-20 15:00N 29°37' W 094°60'0 0.0
2018-Jun-20 14:30N 29°37' W 094°60'0 0.0
2018-Jun-20 14:00N 29°37' W 094°60'0 0.0
2018-Jun-20 13:30N 29°37' W 094°60'0 0.0
2018-Jun-20 13:00N 29°37' W 094°60'0 0.0
2018-Jun-20 12:30N 29°37' W 094°60'0 0.0
2018-Jun-20 12:00N 29°37' W 094°60'0 0.0
2018-Jun-20 11:30N 29°37' W 094°60'0 0.0
2018-Jun-20 11:00N 29°37' W 094°60'0 0.0
2018-Jun-20 10:30N 29°37' W 094°60'0 0.0
2018-Jun-20 10:00N 29°37' W 094°60'0 0.0
2018-Jun-20 09:30N 29°37' W 094°60'0 0.0
2018-Jun-20 09:00N 29°37' W 094°60'0 0.0
2018-Jun-20 08:30N 29°37' W 094°60'0 0.0
2018-Jun-20 08:00N 29°37' W 094°60'0 0.0
2018-Jun-20 07:30N 29°37' W 094°60'0 0.0
2018-Jun-20 07:00N 29°37' W 094°60'0 0.1
2018-Jun-20 06:30N 29°37' W 094°60'0 0.0
2018-Jun-20 06:00N 29°37' W 094°60'0 0.0
2018-Jun-20 05:30N 29°37' W 094°60'0 0.1
2018-Jun-20 05:00N 29°37' W 094°60'0 0.0
2018-Jun-20 04:30N 29°37' W 094°60'2 3.2
2018-Jun-20 04:00N 29°37' W 094°58'3 5.8
2018-Jun-20 03:30N 29°40' W 094°58'2 3.7
2018-Jun-20 03:00N 29°41' W 094°57'2 3.5
2018-Jun-20 02:27N 29°42' W 094°55'1 1.5
2018-Jun-20 01:55N 29°42' W 094°56'1 0.3
2018-Jun-19 22:08N 29°43' W 094°57'2 0.3
2018-Jun-19 15:50N 29°42' W 094°55'1 1.8
2018-Jun-19 15:07N 29°43' W 094°56'0 0.0
2018-Jun-19 14:59N 29°43' W 094°56'0 0.0
2018-Jun-19 14:30N 29°43' W 094°56'0 0.0
2018-Jun-19 13:44N 29°43' W 094°56'0 0.1
2018-Jun-19 13:29N 29°43' W 094°56'0 0.0
2018-Jun-19 13:00N 29°43' W 094°56'0 0.0
2018-Jun-19 12:28N 29°43' W 094°56'0 0.0
2018-Jun-19 12:00N 29°43' W 094°56'0 0.0
2018-Jun-19 11:27N 29°43' W 094°56'0 0.0
2018-Jun-19 11:00N 29°43' W 094°56'0 0.0
2018-Jun-19 10:30N 29°43' W 094°56'0 0.0
2018-Jun-19 09:58N 29°43' W 094°56'0 0.0
2018-Jun-19 09:29N 29°43' W 094°56'0 0.0
2018-Jun-19 08:53N 29°43' W 094°56'0 0.0
2018-Jun-19 08:23N 29°43' W 094°56'0 0.0
2018-Jun-19 08:00N 29°43' W 094°56'0 0.0
2018-Jun-19 07:30N 29°43' W 094°56'0 0.0
2018-Jun-19 00:43N 29°43' W 094°56'1 0.7
2018-Jun-18 23:07N 29°42' W 094°55'1 0.5
2018-Jun-18 21:54N 29°42' W 094°56'1 0.0
2018-Jun-16 23:31N 29°42' W 094°55'0 3.3
2018-Jun-16 23:30N 29°42' W 094°55'3 3.2
2018-Jun-16 22:38N 29°41' W 094°58'0 1.1
2018-Jun-16 22:30N 29°41' W 094°59'2 3.6
2018-Jun-16 21:51N 29°42' W 095°01'4 0.2
2018-Jun-16 02:57N 29°45' W 095°04'3 4.6
2018-Jun-16 02:13N 29°42' W 095°01'1 5.2
2018-Jun-16 01:58N 29°42' W 094°60'2 4.0
2018-Jun-16 01:29N 29°41' W 094°58'2 2.9
2018-Jun-16 00:50N 29°41' W 094°55'1 1.9
2018-Jun-16 00:20N 29°42' W 094°55'2 0.1
2018-Jun-15 01:49N 29°43' W 094°56'2 2.4
2018-Jun-15 01:00N 29°42' W 094°55'0 0.0
2018-Jun-15 00:29N 29°42' W 094°55'0 0.7
2018-Jun-14 23:58N 29°42' W 094°55'3 2.0
2018-Jun-14 22:29N 29°41' W 094°59'0 0.7
2018-Jun-14 21:59N 29°41' W 094°59'0 0.7
2018-Jun-14 21:29N 29°41' W 094°59'1 1.9
2018-Jun-14 21:00N 29°41' W 094°58'2 0.3
2018-Jun-14 13:41N 29°43' W 094°57'1 0.1
2018-Jun-14 09:28N 29°43' W 094°56'0 0.0
2018-Jun-14 08:15N 29°43' W 094°56'0 0.0
2018-Jun-14 08:00N 29°43' W 094°56'0 0.0
2018-Jun-14 07:29N 29°43' W 094°56'1 1.8
2018-Jun-14 06:59N 29°42' W 094°56'1 0.2
2018-Jun-14 03:49N 29°42' W 094°55'0 0.0
2018-Jun-14 03:21N 29°42' W 094°55'0 0.1
2018-Jun-14 02:45N 29°42' W 094°55'1 2.1
2018-Jun-14 02:23N 29°42' W 094°56'0 1.0
2018-Jun-14 01:56N 29°42' W 094°56'1 0.2
2018-Jun-13 23:23N 29°43' W 094°56'0 0.0
2018-Jun-13 21:02N 29°43' W 094°56'0 0.2
2018-Jun-13 21:00N 29°43' W 094°56'  

Dump ship's entire track history